Time,TemperatureF,DewpointF,PressureIn,WindDirection,WindDirectionDegrees,WindSpeedMPH,WindSpeedGustMPH,Humidity,HourlyPrecipIn,Conditions,Clouds,dailyrainin,SoftwareType,DateUTC
2013-11-04 00:01:00,20.2,17.5,30.47,ENE,62,0.0,0.0,89,0.00,,CLR,0.00,VWS V12.08,2013-11-04 05:01:00,
2013-11-04 00:02:00,20.2,17.5,30.47,ENE,62,0.0,0.0,89,0.00,,CLR,0.00,VWS V12.08,2013-11-04 05:02:00,
2013-11-04 00:07:00,20.0,17.3,30.47,ENE,62,0.0,0.0,89,0.00,,CLR,0.00,VWS V12.08,2013-11-04 05:07:00,
2013-11-04 00:12:00,20.0,17.3,30.47,ENE,62,0.0,0.0,89,0.00,,CLR,0.00,VWS V12.08,2013-11-04 05:12:00,
2013-11-04 00:17:00,19.9,17.2,30.48,ENE,62,0.0,0.0,89,0.00,,CLR,0.00,VWS V12.08,2013-11-04 05:17:00,
2013-11-04 00:22:00,19.7,17.0,30.48,ENE,62,0.0,0.0,89,0.00,,CLR,0.00,VWS V12.08,2013-11-04 05:22:00,
2013-11-04 00:27:00,19.7,17.0,30.48,ENE,62,0.0,0.0,89,0.00,,CLR,0.00,VWS V12.08,2013-11-04 05:27:00,
2013-11-04 00:32:00,19.6,17.1,30.49,ENE,62,0.0,0.0,90,0.00,,CLR,0.00,VWS V12.08,2013-11-04 05:32:00,
2013-11-04 00:37:00,19.6,17.1,30.49,ENE,62,0.0,0.0,90,0.00,,CLR,0.00,VWS V12.08,2013-11-04 05:37:00,
2013-11-04 00:42:00,19.4,17.0,30.49,ENE,62,0.0,0.0,90,0.00,,CLR,0.00,VWS V12.08,2013-11-04 05:42:00,
2013-11-04 00:47:00,19.4,17.0,30.49,ENE,62,0.0,1.0,90,0.00,,CLR,0.00,VWS V12.08,2013-11-04 05:47:00,
2013-11-04 00:52:00,19.4,17.2,30.49,ENE,62,0.0,0.0,91,0.00,,CLR,0.00,VWS V12.08,2013-11-04 05:52:00,
2013-11-04 00:57:00,19.4,17.2,30.49,ENE,62,0.0,0.0,91,0.00,,CLR,0.00,VWS V12.08,2013-11-04 05:57:00,
2013-11-04 01:02:00,19.3,17.1,30.49,ENE,62,0.0,0.0,91,0.00,,CLR,0.00,VWS V12.08,2013-11-04 06:02:00,
2013-11-04 01:07:00,18.9,16.7,30.49,ENE,62,0.0,0.0,91,0.00,,CLR,0.00,VWS V12.08,2013-11-04 06:07:00,
2013-11-04 01:12:00,18.9,16.7,30.49,ENE,62,0.0,0.0,91,0.00,,CLR,0.00,VWS V12.08,2013-11-04 06:12:00,
2013-11-04 01:17:00,18.9,17.0,30.50,ENE,62,0.0,0.0,92,0.00,,CLR,0.00,VWS V12.08,2013-11-04 06:17:00,
2013-11-04 01:22:00,18.9,17.0,30.50,ENE,62,0.0,0.0,92,0.00,,CLR,0.00,VWS V12.08,2013-11-04 06:22:00,
2013-11-04 01:27:00,18.6,16.4,30.50,ENE,62,0.0,0.0,91,0.00,,CLR,0.00,VWS V12.08,2013-11-04 06:27:00,
2013-11-04 01:32:00,18.5,16.6,30.51,ENE,62,0.0,0.0,92,0.00,,CLR,0.00,VWS V12.08,2013-11-04 06:32:00,
2013-11-04 01:37:00,18.5,16.6,30.51,ENE,62,0.0,0.0,92,0.00,,CLR,0.00,VWS V12.08,2013-11-04 06:37:00,
2013-11-04 01:42:00,18.5,16.6,30.51,ENE,62,0.0,0.0,92,0.00,,CLR,0.00,VWS V12.08,2013-11-04 06:42:00,
2013-11-04 01:47:00,18.5,16.6,30.51,ENE,62,0.0,0.0,92,0.00,,CLR,0.00,VWS V12.08,2013-11-04 06:47:00,
2013-11-04 01:52:00,18.5,16.6,30.51,ENE,62,0.0,0.0,92,0.00,,CLR,0.00,VWS V12.08,2013-11-04 06:52:00,
2013-11-04 01:57:00,18.5,16.8,30.51,ENE,62,0.0,0.0,93,0.00,,CLR,0.00,VWS V12.08,2013-11-04 06:57:00,
2013-11-04 02:02:00,18.3,16.4,30.52,ENE,62,0.0,0.0,92,0.00,,CLR,0.00,VWS V12.08,2013-11-04 07:02:00,
2013-11-04 02:07:00,18.1,16.2,30.52,ENE,62,0.0,0.0,92,0.00,,CLR,0.00,VWS V12.08,2013-11-04 07:07:00,
2013-11-04 02:12:00,18.1,16.4,30.52,ENE,62,0.0,0.0,93,0.00,,CLR,0.00,VWS V12.08,2013-11-04 07:12:00,
2013-11-04 02:17:00,18.1,16.4,30.53,ENE,62,0.0,0.0,93,0.00,,CLR,0.00,VWS V12.08,2013-11-04 07:17:00,
2013-11-04 02:22:00,18.1,16.4,30.53,ENE,62,0.0,0.0,93,0.00,,CLR,0.00,VWS V12.08,2013-11-04 07:22:00,
2013-11-04 02:27:00,18.1,16.7,30.53,ENE,62,0.0,0.0,94,0.00,,CLR,0.00,VWS V12.08,2013-11-04 07:27:00,
2013-11-04 02:32:00,18.0,16.3,30.53,ENE,62,0.0,0.0,93,0.00,,CLR,0.00,VWS V12.08,2013-11-04 07:32:00,
2013-11-04 02:37:00,17.8,16.1,30.53,ENE,62,0.0,0.0,93,0.00,,CLR,0.00,VWS V12.08,2013-11-04 07:37:00,
2013-11-04 02:42:00,17.7,16.3,30.53,ENE,62,0.0,0.0,94,0.00,,CLR,0.00,VWS V12.08,2013-11-04 07:42:00,
2013-11-04 02:47:00,17.7,16.3,30.55,ENE,62,0.0,0.0,94,0.00,,CLR,0.00,VWS V12.08,2013-11-04 07:47:00,
2013-11-04 02:52:00,17.5,16.1,30.55,ENE,62,0.0,0.0,94,0.00,,CLR,0.00,VWS V12.08,2013-11-04 07:52:00,
2013-11-04 02:57:00,17.5,16.1,30.55,ENE,62,0.0,0.0,94,0.00,,CLR,0.00,VWS V12.08,2013-11-04 07:57:00,
2013-11-04 03:02:00,17.5,16.1,30.56,ENE,62,0.0,0.0,94,0.00,,CLR,0.00,VWS V12.08,2013-11-04 08:02:00,
2013-11-04 03:07:00,17.4,16.0,30.56,ENE,62,0.0,0.0,94,0.00,,CLR,0.00,VWS V12.08,2013-11-04 08:07:00,
2013-11-04 03:12:00,17.2,15.8,30.56,ENE,62,0.0,0.0,94,0.00,,CLR,0.00,VWS V12.08,2013-11-04 08:12:00,
2013-11-04 03:17:00,17.2,15.8,30.56,ENE,62,0.0,0.0,94,0.00,,CLR,0.00,VWS V12.08,2013-11-04 08:17:00,
2013-11-04 03:22:00,17.2,15.8,30.56,ENE,62,0.0,0.0,94,0.00,,CLR,0.00,VWS V12.08,2013-11-04 08:22:00,
2013-11-04 03:27:00,17.2,15.8,30.56,ENE,62,0.0,0.0,94,0.00,,CLR,0.00,VWS V12.08,2013-11-04 08:27:00,
2013-11-04 03:32:00,17.2,15.8,30.58,ENE,62,0.0,0.0,94,0.00,,CLR,0.00,VWS V12.08,2013-11-04 08:32:00,
2013-11-04 03:37:00,17.2,15.8,30.58,ENE,62,0.0,0.0,94,0.00,,CLR,0.00,VWS V12.08,2013-11-04 08:37:00,
2013-11-04 03:42:00,17.2,16.0,30.58,ENE,62,0.0,0.0,95,0.00,,CLR,0.00,VWS V12.08,2013-11-04 08:42:00,
2013-11-04 03:47:00,17.2,16.0,30.58,ENE,62,0.0,0.0,95,0.00,,CLR,0.00,VWS V12.08,2013-11-04 08:47:00,
2013-11-04 03:52:00,17.2,16.0,30.58,ENE,62,0.0,0.0,95,0.00,,CLR,0.00,VWS V12.08,2013-11-04 08:52:00,
2013-11-04 03:57:00,17.2,16.0,30.58,ENE,62,0.0,0.0,95,0.00,,CLR,0.00,VWS V12.08,2013-11-04 08:57:00,
2013-11-04 04:02:00,16.9,15.5,30.58,ENE,62,0.0,0.0,94,0.00,,CLR,0.00,VWS V12.08,2013-11-04 09:02:00,
2013-11-04 04:07:00,16.9,15.7,30.58,ENE,62,0.0,0.0,95,0.00,,CLR,0.00,VWS V12.08,2013-11-04 09:07:00,
2013-11-04 04:12:00,17.0,15.8,30.58,ENE,62,0.0,0.0,95,0.00,,CLR,0.00,VWS V12.08,2013-11-04 09:12:00,
2013-11-04 04:17:00,17.0,15.8,30.58,ENE,62,0.0,0.0,95,0.00,,CLR,0.00,VWS V12.08,2013-11-04 09:17:00,
2013-11-04 04:22:00,17.0,15.8,30.58,ENE,62,0.0,0.0,95,0.00,,CLR,0.00,VWS V12.08,2013-11-04 09:22:00,
2013-11-04 04:27:00,16.9,15.7,30.58,ENE,62,0.0,1.0,95,0.00,,CLR,0.00,VWS V12.08,2013-11-04 09:27:00,
2013-11-04 04:32:00,16.7,15.5,30.58,ENE,62,0.0,0.0,95,0.00,,CLR,0.00,VWS V12.08,2013-11-04 09:32:00,
2013-11-04 04:37:00,16.6,15.4,30.58,ENE,62,0.0,0.0,95,0.00,,CLR,0.00,VWS V12.08,2013-11-04 09:37:00,
2013-11-04 04:42:00,16.4,15.2,30.58,ENE,62,0.0,0.0,95,0.00,,CLR,0.00,VWS V12.08,2013-11-04 09:42:00,
2013-11-04 04:47:00,16.4,15.2,30.59,ENE,62,0.0,0.0,95,0.00,,CLR,0.00,VWS V12.08,2013-11-04 09:47:00,
2013-11-04 04:52:00,16.3,15.4,30.59,ENE,62,0.0,0.0,96,0.00,,CLR,0.00,VWS V12.08,2013-11-04 09:52:00,
2013-11-04 04:57:00,16.3,15.4,30.59,ENE,62,0.0,0.0,96,0.00,,CLR,0.00,VWS V12.08,2013-11-04 09:57:00,
2013-11-04 05:02:00,16.1,15.2,30.60,ENE,62,0.0,0.0,96,0.00,,CLR,0.00,VWS V12.08,2013-11-04 10:02:00,
2013-11-04 05:07:00,16.1,15.2,30.60,ENE,62,0.0,0.0,96,0.00,,CLR,0.00,VWS V12.08,2013-11-04 10:07:00,
2013-11-04 05:12:00,15.9,15.0,30.60,ENE,62,0.0,0.0,96,0.00,,CLR,0.00,VWS V12.08,2013-11-04 10:12:00,
2013-11-04 05:17:00,15.9,15.0,30.61,ENE,62,0.0,0.0,96,0.00,,CLR,0.00,VWS V12.08,2013-11-04 10:17:00,
2013-11-04 05:22:00,15.8,14.9,30.61,ENE,62,0.0,0.0,96,0.00,,CLR,0.00,VWS V12.08,2013-11-04 10:22:00,
2013-11-04 05:27:00,15.8,14.9,30.61,ENE,62,0.0,0.0,96,0.00,,CLR,0.00,VWS V12.08,2013-11-04 10:27:00,
2013-11-04 05:32:00,15.8,14.9,30.62,ENE,62,0.0,0.0,96,0.00,,CLR,0.00,VWS V12.08,2013-11-04 10:32:00,
2013-11-04 05:37:00,15.8,14.9,30.62,ENE,62,0.0,0.0,96,0.00,,CLR,0.00,VWS V12.08,2013-11-04 10:37:00,
2013-11-04 05:42:00,15.8,14.6,30.62,ENE,62,0.0,0.0,95,0.00,,CLR,0.00,VWS V12.08,2013-11-04 10:42:00,
2013-11-04 05:47:00,15.8,14.6,30.63,ENE,62,0.0,0.0,95,0.00,,CLR,0.00,VWS V12.08,2013-11-04 10:47:00,
2013-11-04 05:53:00,15.8,14.6,30.63,ENE,62,0.0,0.0,95,0.00,,CLR,0.00,VWS V12.08,2013-11-04 10:53:00,
2013-11-04 05:58:00,15.8,14.9,30.63,ENE,62,0.0,0.0,96,0.00,,CLR,0.00,VWS V12.08,2013-11-04 10:58:00,
2013-11-04 06:03:00,15.8,14.9,30.63,ENE,62,0.0,0.0,96,0.00,,CLR,0.00,VWS V12.08,2013-11-04 11:03:00,
2013-11-04 06:08:00,15.8,14.6,30.63,ENE,62,0.0,0.0,95,0.00,,CLR,0.00,VWS V12.08,2013-11-04 11:08:00,
2013-11-04 06:13:00,15.8,14.9,30.63,ENE,62,0.0,0.0,96,0.00,,CLR,0.00,VWS V12.08,2013-11-04 11:13:00,
2013-11-04 06:14:00,15.8,14.9,30.64,ENE,62,0.0,0.0,96,0.00,,CLR,0.00,VWS V12.08,2013-11-04 11:14:00,
2013-11-04 06:19:00,15.8,14.9,30.64,ENE,62,0.0,0.0,96,0.00,,CLR,0.00,VWS V12.08,2013-11-04 11:19:00,
2013-11-04 06:22:00,15.9,15.0,30.64,ENE,62,0.0,0.0,96,0.00,,CLR,0.00,VWS V12.08,2013-11-04 11:22:00,
2013-11-04 06:27:00,15.9,15.0,30.64,ENE,62,0.0,0.0,96,0.00,,CLR,0.00,VWS V12.08,2013-11-04 11:27:00,
2013-11-04 06:32:00,15.9,14.7,30.64,ENE,62,1.0,1.0,95,0.00,,CLR,0.00,VWS V12.08,2013-11-04 11:32:00,
2013-11-04 06:37:00,15.8,14.9,30.64,ENE,62,0.0,0.0,96,0.00,,CLR,0.00,VWS V12.08,2013-11-04 11:37:00,
2013-11-04 06:42:00,15.8,14.6,30.64,ENE,62,0.0,0.0,95,0.00,,CLR,0.00,VWS V12.08,2013-11-04 11:42:00,
2013-11-04 06:47:00,15.6,14.4,30.65,ENE,62,0.0,0.0,95,0.00,,CLR,0.00,VWS V12.08,2013-11-04 11:47:00,
2013-11-04 06:52:00,15.6,14.7,30.65,ENE,62,0.0,0.0,96,0.00,,CLR,0.00,VWS V12.08,2013-11-04 11:52:00,
2013-11-04 06:57:00,15.6,14.7,30.65,ENE,62,0.0,0.0,96,0.00,,CLR,0.00,VWS V12.08,2013-11-04 11:57:00,
2013-11-04 07:02:00,15.8,14.9,30.66,ENE,62,0.0,0.0,96,0.00,,CLR,0.00,VWS V12.08,2013-11-04 12:02:00,
2013-11-04 07:07:00,15.9,15.0,30.66,ENE,62,0.0,0.0,96,0.00,,CLR,0.00,VWS V12.08,2013-11-04 12:07:00,
2013-11-04 07:12:00,15.9,15.0,30.66,ENE,62,1.0,2.0,96,0.00,,CLR,0.00,VWS V12.08,2013-11-04 12:12:00,
2013-11-04 07:17:00,15.9,15.0,30.66,ENE,62,0.0,0.0,96,0.00,,CLR,0.00,VWS V12.08,2013-11-04 12:17:00,
2013-11-04 07:22:00,16.1,15.2,30.66,ENE,62,0.0,2.0,96,0.00,,CLR,0.00,VWS V12.08,2013-11-04 12:22:00,
2013-11-04 07:27:00,16.3,15.4,30.66,ENE,62,1.0,2.0,96,0.00,,CLR,0.00,VWS V12.08,2013-11-04 12:27:00,
2013-11-04 07:32:00,16.4,15.5,30.66,ENE,62,0.0,1.0,96,0.00,,CLR,0.00,VWS V12.08,2013-11-04 12:32:00,
2013-11-04 07:37:00,16.9,16.0,30.66,ENE,62,1.0,2.0,96,0.00,,CLR,0.00,VWS V12.08,2013-11-04 12:37:00,
2013-11-04 07:42:00,17.0,15.8,30.66,ENE,62,0.0,0.0,95,0.00,,CLR,0.00,VWS V12.08,2013-11-04 12:42:00,
2013-11-04 07:47:00,17.4,16.5,30.66,ENE,62,1.0,2.0,96,0.00,,CLR,0.00,VWS V12.08,2013-11-04 12:47:00,
2013-11-04 07:52:00,18.1,17.1,30.66,ENE,62,0.0,1.0,96,0.00,,CLR,0.00,VWS V12.08,2013-11-04 12:52:00,
2013-11-04 07:57:00,18.5,17.3,30.66,ENE,62,1.0,2.0,95,0.00,,CLR,0.00,VWS V12.08,2013-11-04 12:57:00,
2013-11-04 08:02:00,18.6,17.2,30.67,ENE,64,1.0,2.0,94,0.00,,CLR,0.00,VWS V12.08,2013-11-04 13:02:00,
2013-11-04 08:07:00,19.4,18.0,30.67,ENE,64,1.0,2.0,94,0.00,,CLR,0.00,VWS V12.08,2013-11-04 13:07:00,
2013-11-04 08:12:00,19.9,18.5,30.67,ENE,64,1.0,2.0,94,0.00,,CLR,0.00,VWS V12.08,2013-11-04 13:12:00,
2013-11-04 08:17:00,20.7,18.8,30.66,ENE,64,2.0,5.0,92,0.00,,CLR,0.00,VWS V12.08,2013-11-04 13:17:00,
2013-11-04 08:22:00,21.6,19.4,30.66,East,82,3.0,3.0,91,0.00,,CLR,0.00,VWS V12.08,2013-11-04 13:22:00,
2013-11-04 08:27:00,22.6,19.6,30.66,East,82,2.0,3.0,88,0.00,,CLR,0.00,VWS V12.08,2013-11-04 13:27:00,
2013-11-04 08:32:00,23.3,19.7,30.66,East,82,1.0,2.0,86,0.00,,CLR,0.00,VWS V12.08,2013-11-04 13:32:00,
2013-11-04 08:37:00,24.1,20.0,30.66,East,82,0.0,0.0,84,0.00,,CLR,0.00,VWS V12.08,2013-11-04 13:37:00,
2013-11-04 08:42:00,24.1,19.4,30.66,East,82,2.0,2.0,82,0.00,,CLR,0.00,VWS V12.08,2013-11-04 13:42:00,
2013-11-04 08:47:00,24.1,18.8,30.67,East,83,2.0,3.0,80,0.00,,CLR,0.00,VWS V12.08,2013-11-04 13:47:00,
2013-11-04 08:52:00,24.2,18.6,30.67,East,83,2.0,3.0,79,0.00,,CLR,0.00,VWS V12.08,2013-11-04 13:52:00,
2013-11-04 08:57:00,24.7,18.2,30.67,East,92,2.0,3.0,76,0.00,,CLR,0.00,VWS V12.08,2013-11-04 13:57:00,
2013-11-04 09:02:00,25.1,18.0,30.67,East,92,1.0,3.0,74,0.00,,CLR,0.00,VWS V12.08,2013-11-04 14:02:00,
2013-11-04 09:07:00,25.6,17.5,30.67,East,85,2.0,3.0,71,0.00,,CLR,0.00,VWS V12.08,2013-11-04 14:07:00,
2013-11-04 09:12:00,27.0,18.9,30.67,NE,48,5.0,6.0,71,0.00,,CLR,0.00,VWS V12.08,2013-11-04 14:12:00,
2013-11-04 09:17:00,27.9,17.7,30.66,ESE,116,2.0,6.0,65,0.00,,CLR,0.00,VWS V12.08,2013-11-04 14:17:00,
2013-11-04 09:22:00,28.5,17.9,30.66,East,79,2.0,6.0,64,0.00,,CLR,0.00,VWS V12.08,2013-11-04 14:22:00,
2013-11-04 09:27:00,29.1,18.5,30.66,East,86,3.0,6.0,64,0.00,,CLR,0.00,VWS V12.08,2013-11-04 14:27:00,
2013-11-04 09:32:00,29.7,17.9,30.66,ENE,78,3.0,3.0,61,0.00,,CLR,0.00,VWS V12.08,2013-11-04 14:32:00,
2013-11-04 09:37:00,29.7,17.5,30.66,East,80,2.0,6.0,60,0.00,,CLR,0.00,VWS V12.08,2013-11-04 14:37:00,
2013-11-04 09:42:00,30.0,17.0,30.66,East,88,1.0,3.0,58,0.00,,CLR,0.00,VWS V12.08,2013-11-04 14:42:00,
2013-11-04 09:47:00,30.0,16.6,30.65,East,82,1.0,6.0,57,0.00,,CLR,0.00,VWS V12.08,2013-11-04 14:47:00,
2013-11-04 09:52:00,29.7,17.1,30.65,East,79,2.0,5.0,59,0.00,,CLR,0.00,VWS V12.08,2013-11-04 14:52:00,
2013-11-04 09:57:00,30.0,16.6,30.65,East,88,3.0,3.0,57,0.00,,CLR,0.00,VWS V12.08,2013-11-04 14:57:00,
2013-11-04 10:02:00,29.7,16.4,30.66,East,96,1.0,5.0,57,0.00,,CLR,0.00,VWS V12.08,2013-11-04 15:02:00,
2013-11-04 10:07:00,29.6,16.2,30.66,East,99,1.0,2.0,57,0.00,,CLR,0.00,VWS V12.08,2013-11-04 15:07:00,
2013-11-04 10:12:00,30.0,16.2,30.66,East,93,2.0,6.0,56,0.00,,CLR,0.00,VWS V12.08,2013-11-04 15:12:00,
2013-11-04 10:17:00,29.9,16.1,30.67,East,97,2.0,4.0,56,0.00,,CLR,0.00,VWS V12.08,2013-11-04 15:17:00,
2013-11-04 10:22:00,30.3,16.1,30.67,NE,54,5.0,10.0,55,0.00,,CLR,0.00,VWS V12.08,2013-11-04 15:22:00,
2013-11-04 10:27:00,30.7,16.0,30.67,ESE,112,1.0,5.0,54,0.00,,CLR,0.00,VWS V12.08,2013-11-04 15:27:00,
2013-11-04 10:32:00,31.2,15.6,30.67,SSW,205,3.0,5.0,52,0.00,,CLR,0.00,VWS V12.08,2013-11-04 15:32:00,
2013-11-04 10:37:00,32.2,16.6,30.67,ENE,73,2.0,6.0,52,0.00,,CLR,0.00,VWS V12.08,2013-11-04 15:37:00,
2013-11-04 10:42:00,31.8,15.3,30.67,East,97,1.0,6.0,50,0.00,,CLR,0.00,VWS V12.08,2013-11-04 15:42:00,
2013-11-04 10:47:00,32.4,16.8,30.67,East,96,2.0,3.0,52,0.00,,CLR,0.00,VWS V12.08,2013-11-04 15:47:00,
2013-11-04 10:52:00,32.8,15.8,30.67,East,88,1.0,3.0,49,0.00,,CLR,0.00,VWS V12.08,2013-11-04 15:52:00,
2013-11-04 10:58:00,32.5,15.9,30.67,East,92,3.0,3.0,50,0.00,,CLR,0.00,VWS V12.08,2013-11-04 15:58:00,
2013-11-04 11:03:00,32.2,15.7,30.67,SSE,162,1.0,3.0,50,0.00,,CLR,0.00,VWS V12.08,2013-11-04 16:03:00,
2013-11-04 11:08:00,32.8,15.8,30.67,SW,227,2.0,3.0,49,0.00,,CLR,0.00,VWS V12.08,2013-11-04 16:08:00,
2013-11-04 11:13:00,33.5,15.4,30.67,ESE,119,3.0,3.0,47,0.00,,CLR,0.00,VWS V12.08,2013-11-04 16:13:00,
2013-11-04 11:18:00,33.1,14.1,30.67,SE,144,2.0,3.0,45,0.00,,CLR,0.00,VWS V12.08,2013-11-04 16:18:00,
2013-11-04 11:23:00,33.4,14.9,30.67,NE,37,0.0,6.0,46,0.00,,CLR,0.00,VWS V12.08,2013-11-04 16:23:00,
2013-11-04 11:28:00,34.0,13.9,30.67,ENE,71,2.0,5.0,43,0.00,,CLR,0.00,VWS V12.08,2013-11-04 16:28:00,
2013-11-04 11:33:00,34.7,15.0,30.66,ENE,71,5.0,11.0,44,0.00,,CLR,0.00,VWS V12.08,2013-11-04 16:33:00,
2013-11-04 11:38:00,35.1,13.8,30.66,NNW,328,1.0,3.0,41,0.00,,CLR,0.00,VWS V12.08,2013-11-04 16:38:00,
2013-11-04 11:43:00,35.0,14.8,30.66,East,89,4.0,9.0,43,0.00,,CLR,0.00,VWS V12.08,2013-11-04 16:43:00,
2013-11-04 11:48:00,34.3,14.1,30.66,East,99,7.0,7.0,43,0.00,,CLR,0.00,VWS V12.08,2013-11-04 16:48:00,
2013-11-04 11:53:00,33.4,14.9,30.66,East,96,3.0,3.0,46,0.00,,CLR,0.00,VWS V12.08,2013-11-04 16:53:00,
2013-11-04 11:58:00,34.1,15.5,30.66,NE,51,2.0,6.0,46,0.00,,CLR,0.00,VWS V12.08,2013-11-04 16:58:00,
2013-11-04 12:03:00,34.3,15.2,30.65,ESE,113,0.0,1.0,45,0.00,,CLR,0.00,VWS V12.08,2013-11-04 17:03:00,
2013-11-04 12:08:00,34.4,15.3,30.65,East,96,2.0,3.0,45,0.00,,CLR,0.00,VWS V12.08,2013-11-04 17:08:00,
2013-11-04 12:13:00,34.1,15.5,30.65,ENE,69,1.0,4.0,46,0.00,,CLR,0.00,VWS V12.08,2013-11-04 17:13:00,
2013-11-04 12:18:00,34.5,15.9,30.65,ESE,113,0.0,6.0,46,0.00,,CLR,0.00,VWS V12.08,2013-11-04 17:18:00,
2013-11-04 12:23:00,35.0,15.8,30.65,ESE,107,1.0,3.0,45,0.00,,CLR,0.00,VWS V12.08,2013-11-04 17:23:00,
2013-11-04 12:28:00,35.3,17.1,30.65,ENE,69,2.0,7.0,47,0.00,,CLR,0.00,VWS V12.08,2013-11-04 17:28:00,
2013-11-04 12:33:00,35.3,15.6,30.64,SE,127,0.0,2.0,44,0.00,,CLR,0.00,VWS V12.08,2013-11-04 17:33:00,
2013-11-04 12:38:00,35.7,14.9,30.64,ENE,76,2.0,4.0,42,0.00,,CLR,0.00,VWS V12.08,2013-11-04 17:38:00,
2013-11-04 12:43:00,36.3,15.4,30.64,NNE,24,2.0,2.0,42,0.00,,CLR,0.00,VWS V12.08,2013-11-04 17:43:00,
2013-11-04 12:48:00,36.6,14.6,30.64,ENE,75,0.0,3.0,40,0.00,,CLR,0.00,VWS V12.08,2013-11-04 17:48:00,
2013-11-04 12:53:00,35.8,14.4,30.64,East,96,4.0,8.0,41,0.00,,CLR,0.00,VWS V12.08,2013-11-04 17:53:00,
2013-11-04 12:58:00,35.1,14.3,30.64,NE,38,2.0,4.0,42,0.00,,CLR,0.00,VWS V12.08,2013-11-04 17:58:00,
2013-11-04 13:03:00,35.4,14.1,30.63,SE,138,0.0,2.0,41,0.00,,CLR,0.00,VWS V12.08,2013-11-04 18:03:00,
2013-11-04 13:08:00,35.5,14.7,30.63,ESE,116,1.0,5.0,42,0.00,,CLR,0.00,VWS V12.08,2013-11-04 18:08:00,
2013-11-04 13:13:00,35.3,14.5,30.63,NNE,14,2.0,3.0,42,0.00,,CLR,0.00,VWS V12.08,2013-11-04 18:13:00,
2013-11-04 13:18:00,35.8,15.5,30.64,SE,138,6.0,6.0,43,0.00,,CLR,0.00,VWS V12.08,2013-11-04 18:18:00,
2013-11-04 13:23:00,35.5,14.1,30.64,East,97,2.0,5.0,41,0.00,,CLR,0.00,VWS V12.08,2013-11-04 18:23:00,
2013-11-04 13:28:00,35.3,14.5,30.64,East,100,1.0,2.0,42,0.00,,CLR,0.00,VWS V12.08,2013-11-04 18:28:00,
2013-11-04 13:33:00,35.3,15.1,30.63,East,90,1.0,3.0,43,0.00,,CLR,0.00,VWS V12.08,2013-11-04 18:33:00,
2013-11-04 13:38:00,35.5,14.1,30.63,East,99,0.0,4.0,41,0.00,,CLR,0.00,VWS V12.08,2013-11-04 18:38:00,
2013-11-04 13:43:00,35.1,13.2,30.63,ESE,104,1.0,10.0,40,0.00,,CLR,0.00,VWS V12.08,2013-11-04 18:43:00,
2013-11-04 13:48:00,35.7,16.5,30.63,NNE,31,0.0,3.0,45,0.00,,CLR,0.00,VWS V12.08,2013-11-04 18:48:00,
2013-11-04 13:53:00,36.4,15.0,30.63,NE,55,2.0,3.0,41,0.00,,CLR,0.00,VWS V12.08,2013-11-04 18:53:00,
2013-11-04 13:58:00,36.7,15.2,30.63,NE,56,1.0,3.0,41,0.00,,CLR,0.00,VWS V12.08,2013-11-04 18:58:00,
2013-11-04 14:03:00,36.4,15.0,30.63,ESE,102,0.0,1.0,41,0.00,,CLR,0.00,VWS V12.08,2013-11-04 19:03:00,
2013-11-04 14:08:00,36.4,13.8,30.63,ENE,69,5.0,6.0,39,0.00,,CLR,0.00,VWS V12.08,2013-11-04 19:08:00,
2013-11-04 14:13:00,36.4,14.4,30.63,ENE,58,3.0,3.0,40,0.00,,CLR,0.00,VWS V12.08,2013-11-04 19:13:00,
2013-11-04 14:18:00,36.3,15.4,30.63,East,90,1.0,3.0,42,0.00,,CLR,0.00,VWS V12.08,2013-11-04 19:18:00,
2013-11-04 14:23:00,36.7,14.7,30.63,NE,54,5.0,6.0,40,0.00,,CLR,0.00,VWS V12.08,2013-11-04 19:23:00,
2013-11-04 14:28:00,36.4,15.0,30.63,ENE,73,5.0,5.0,41,0.00,,CLR,0.00,VWS V12.08,2013-11-04 19:28:00,
2013-11-04 14:33:00,36.1,14.1,30.63,East,83,0.0,2.0,40,0.00,,CLR,0.00,VWS V12.08,2013-11-04 19:33:00,
2013-11-04 14:38:00,35.8,13.9,30.63,ESE,113,2.0,4.0,40,0.00,,CLR,0.00,VWS V12.08,2013-11-04 19:38:00,
2013-11-04 14:43:00,35.5,14.7,30.63,NNE,23,2.0,3.0,42,0.00,,CLR,0.00,VWS V12.08,2013-11-04 19:43:00,
2013-11-04 14:48:00,35.7,14.3,30.63,NNW,340,0.0,1.0,41,0.00,,CLR,0.00,VWS V12.08,2013-11-04 19:48:00,
2013-11-04 14:53:00,35.8,15.0,30.63,NNW,340,0.0,1.0,42,0.00,,CLR,0.00,VWS V12.08,2013-11-04 19:53:00,
2013-11-04 14:58:00,35.8,14.4,30.63,East,83,0.0,1.0,41,0.00,,CLR,0.00,VWS V12.08,2013-11-04 19:58:00,
2013-11-04 15:03:00,36.0,14.0,30.63,East,82,0.0,1.0,40,0.00,,CLR,0.00,VWS V12.08,2013-11-04 20:03:00,
2013-11-04 15:08:00,36.3,14.9,30.63,East,82,0.0,0.0,41,0.00,,CLR,0.00,VWS V12.08,2013-11-04 20:08:00,
2013-11-04 15:13:00,36.4,14.4,30.63,East,82,0.0,1.0,40,0.00,,CLR,0.00,VWS V12.08,2013-11-04 20:13:00,
2013-11-04 15:18:00,36.4,14.4,30.64,East,82,0.0,0.0,40,0.00,,CLR,0.00,VWS V12.08,2013-11-04 20:18:00,
2013-11-04 15:23:00,36.6,15.1,30.64,East,82,0.0,0.0,41,0.00,,CLR,0.00,VWS V12.08,2013-11-04 20:23:00,
2013-11-04 15:28:00,36.4,15.0,30.64,East,82,0.0,0.0,41,0.00,,CLR,0.00,VWS V12.08,2013-11-04 20:28:00,
2013-11-04 15:33:00,36.0,16.2,30.64,East,82,0.0,0.0,44,0.00,,CLR,0.00,VWS V12.08,2013-11-04 20:33:00,
2013-11-04 15:38:00,35.1,16.4,30.64,East,82,0.0,0.0,46,0.00,,CLR,0.00,VWS V12.08,2013-11-04 20:38:00,
2013-11-04 15:43:00,34.0,16.9,30.64,East,82,0.0,0.0,49,0.00,,CLR,0.00,VWS V12.08,2013-11-04 20:43:00,
2013-11-04 15:48:00,33.4,16.3,30.64,East,82,0.0,0.0,49,0.00,,CLR,0.00,VWS V12.08,2013-11-04 20:48:00,
2013-11-04 15:53:00,32.8,16.7,30.64,East,82,0.0,0.0,51,0.00,,CLR,0.00,VWS V12.08,2013-11-04 20:53:00,
2013-11-04 15:58:00,32.2,17.4,30.64,East,82,2.0,2.0,54,0.00,,CLR,0.00,VWS V12.08,2013-11-04 20:58:00,
2013-11-04 16:03:00,31.6,17.3,30.64,East,82,0.0,0.0,55,0.00,,CLR,0.00,VWS V12.08,2013-11-04 21:03:00,
2013-11-04 16:08:00,31.2,17.3,30.64,East,82,0.0,0.0,56,0.00,,CLR,0.00,VWS V12.08,2013-11-04 21:08:00,
2013-11-04 16:13:00,30.9,17.5,30.64,East,82,0.0,0.0,57,0.00,,CLR,0.00,VWS V12.08,2013-11-04 21:13:00,
2013-11-04 16:18:00,30.6,17.6,30.64,East,82,0.0,0.0,58,0.00,,CLR,0.00,VWS V12.08,2013-11-04 21:18:00,
2013-11-04 16:23:00,30.4,17.8,30.64,East,82,0.0,0.0,59,0.00,,CLR,0.00,VWS V12.08,2013-11-04 21:23:00,
2013-11-04 16:28:00,30.2,18.0,30.64,East,82,0.0,0.0,60,0.00,,CLR,0.00,VWS V12.08,2013-11-04 21:28:00,
2013-11-04 16:33:00,29.7,17.9,30.64,East,82,0.0,0.0,61,0.00,,CLR,0.00,VWS V12.08,2013-11-04 21:33:00,
2013-11-04 16:38:00,29.4,18.0,30.64,East,82,0.0,0.0,62,0.00,,CLR,0.00,VWS V12.08,2013-11-04 21:38:00,
2013-11-04 16:43:00,29.0,18.0,30.64,East,82,0.0,0.0,63,0.00,,CLR,0.00,VWS V12.08,2013-11-04 21:43:00,
2013-11-04 16:48:00,28.5,17.9,30.64,East,82,0.0,0.0,64,0.00,,CLR,0.00,VWS V12.08,2013-11-04 21:48:00,
2013-11-04 16:53:00,28.2,18.0,30.64,East,82,0.0,0.0,65,0.00,,CLR,0.00,VWS V12.08,2013-11-04 21:53:00,
2013-11-04 16:58:00,27.9,18.0,30.64,East,82,0.0,0.0,66,0.00,,CLR,0.00,VWS V12.08,2013-11-04 21:58:00,
2013-11-04 17:03:00,27.6,17.7,30.65,East,82,0.0,0.0,66,0.00,,CLR,0.00,VWS V12.08,2013-11-04 22:03:00,
2013-11-04 17:08:00,27.5,17.6,30.65,East,82,0.0,0.0,66,0.00,,CLR,0.00,VWS V12.08,2013-11-04 22:08:00,
2013-11-04 17:13:00,27.3,17.8,30.65,East,82,0.0,0.0,67,0.00,,CLR,0.00,VWS V12.08,2013-11-04 22:13:00,
2013-11-04 17:18:00,27.2,17.7,30.66,East,82,0.0,0.0,67,0.00,,CLR,0.00,VWS V12.08,2013-11-04 22:18:00,
2013-11-04 17:23:00,27.0,17.9,30.66,East,82,0.0,0.0,68,0.00,,CLR,0.00,VWS V12.08,2013-11-04 22:23:00,
2013-11-04 17:28:00,26.9,17.8,30.66,East,82,0.0,0.0,68,0.00,,CLR,0.00,VWS V12.08,2013-11-04 22:28:00,
2013-11-04 17:33:00,26.8,17.7,30.66,East,82,0.0,0.0,68,0.00,,CLR,0.00,VWS V12.08,2013-11-04 22:33:00,
2013-11-04 17:38:00,26.6,17.1,30.66,East,82,0.0,0.0,67,0.00,,CLR,0.00,VWS V12.08,2013-11-04 22:38:00,
2013-11-04 17:43:00,26.5,17.4,30.67,East,82,0.0,0.0,68,0.00,,CLR,0.00,VWS V12.08,2013-11-04 22:43:00,
2013-11-04 17:49:00,26.3,17.5,30.67,East,82,0.0,0.0,69,0.00,,CLR,0.00,VWS V12.08,2013-11-04 22:49:00,
2013-11-04 17:54:00,26.3,17.9,30.67,East,82,0.0,0.0,70,0.00,,CLR,0.00,VWS V12.08,2013-11-04 22:54:00,
2013-11-04 17:59:00,26.2,17.8,30.67,East,82,0.0,0.0,70,0.00,,CLR,0.00,VWS V12.08,2013-11-04 22:59:00,
2013-11-04 18:04:00,26.0,17.6,30.67,East,82,0.0,0.0,70,0.00,,CLR,0.00,VWS V12.08,2013-11-04 23:04:00,
2013-11-04 18:09:00,25.9,17.5,30.67,East,82,0.0,0.0,70,0.00,,CLR,0.00,VWS V12.08,2013-11-04 23:09:00,
2013-11-04 18:14:00,25.9,17.5,30.67,East,82,0.0,0.0,70,0.00,,CLR,0.00,VWS V12.08,2013-11-04 23:14:00,
2013-11-04 18:19:00,25.7,17.6,30.67,East,82,0.0,0.0,71,0.00,,CLR,0.00,VWS V12.08,2013-11-04 23:19:00,
2013-11-04 18:24:00,25.7,17.3,30.67,East,82,0.0,0.0,70,0.00,,CLR,0.00,VWS V12.08,2013-11-04 23:24:00,
2013-11-04 18:29:00,25.6,17.2,30.67,East,82,0.0,0.0,70,0.00,,CLR,0.00,VWS V12.08,2013-11-04 23:29:00,
2013-11-04 18:34:00,25.4,17.0,30.67,East,82,0.0,0.0,70,0.00,,CLR,0.00,VWS V12.08,2013-11-04 23:34:00,
2013-11-04 18:39:00,25.3,17.2,30.67,East,82,0.0,0.0,71,0.00,,CLR,0.00,VWS V12.08,2013-11-04 23:39:00,
2013-11-04 18:44:00,25.3,17.2,30.67,East,82,0.0,0.0,71,0.00,,CLR,0.00,VWS V12.08,2013-11-04 23:44:00,
2013-11-04 18:49:00,25.1,17.0,30.67,East,82,0.0,0.0,71,0.00,,CLR,0.00,VWS V12.08,2013-11-04 23:49:00,
2013-11-04 18:54:00,25.0,17.3,30.67,East,82,0.0,0.0,72,0.00,,CLR,0.00,VWS V12.08,2013-11-04 23:54:00,
2013-11-04 18:59:00,25.0,17.3,30.67,East,82,0.0,0.0,72,0.00,,CLR,0.00,VWS V12.08,2013-11-04 23:59:00,
2013-11-04 19:04:00,25.0,17.6,30.67,East,82,0.0,0.0,73,0.00,,CLR,0.00,VWS V12.08,2013-11-05 00:04:00,
2013-11-04 19:09:00,24.8,17.7,30.67,East,82,0.0,0.0,74,0.00,,CLR,0.00,VWS V12.08,2013-11-05 00:09:00,
2013-11-04 19:14:00,24.7,17.6,30.66,East,82,0.0,0.0,74,0.00,,CLR,0.00,VWS V12.08,2013-11-05 00:14:00,
2013-11-04 19:19:00,24.5,17.7,30.66,East,82,0.0,0.0,75,0.00,,CLR,0.00,VWS V12.08,2013-11-05 00:19:00,
2013-11-04 19:24:00,24.4,17.6,30.66,East,82,0.0,0.0,75,0.00,,CLR,0.00,VWS V12.08,2013-11-05 00:24:00,
2013-11-04 19:29:00,24.1,17.6,30.66,East,82,0.0,0.0,76,0.00,,CLR,0.00,VWS V12.08,2013-11-05 00:29:00,
2013-11-04 19:34:00,23.9,17.5,30.66,East,82,0.0,0.0,76,0.00,,CLR,0.00,VWS V12.08,2013-11-05 00:34:00,
2013-11-04 19:39:00,23.9,17.5,30.66,East,82,0.0,0.0,76,0.00,,CLR,0.00,VWS V12.08,2013-11-05 00:39:00,
2013-11-04 19:44:00,23.9,17.8,30.67,East,82,0.0,0.0,77,0.00,,CLR,0.00,VWS V12.08,2013-11-05 00:44:00,
2013-11-04 19:49:00,23.8,17.7,30.67,East,82,0.0,0.0,77,0.00,,CLR,0.00,VWS V12.08,2013-11-05 00:49:00,
2013-11-04 19:54:00,23.8,17.7,30.67,East,82,0.0,0.0,77,0.00,,CLR,0.00,VWS V12.08,2013-11-05 00:54:00,
2013-11-04 19:59:00,23.6,17.5,30.67,East,82,0.0,0.0,77,0.00,,CLR,0.00,VWS V12.08,2013-11-05 00:59:00,
2013-11-04 20:04:00,23.5,17.4,30.67,East,82,0.0,0.0,77,0.00,,CLR,0.00,VWS V12.08,2013-11-05 01:04:00,
2013-11-04 20:09:00,23.3,17.5,30.67,East,82,0.0,0.0,78,0.00,,CLR,0.00,VWS V12.08,2013-11-05 01:09:00,
2013-11-04 20:14:00,23.2,17.4,30.67,East,82,0.0,0.0,78,0.00,,CLR,0.00,VWS V12.08,2013-11-05 01:14:00,
2013-11-04 20:19:00,23.1,17.3,30.67,East,82,0.0,0.0,78,0.00,,CLR,0.00,VWS V12.08,2013-11-05 01:19:00,
2013-11-04 20:24:00,22.9,17.4,30.67,East,82,0.0,0.0,79,0.00,,CLR,0.00,VWS V12.08,2013-11-05 01:24:00,
2013-11-04 20:29:00,22.9,17.4,30.67,East,82,0.0,0.0,79,0.00,,CLR,0.00,VWS V12.08,2013-11-05 01:29:00,
2013-11-04 20:34:00,22.8,17.6,30.67,East,82,0.0,0.0,80,0.00,,CLR,0.00,VWS V12.08,2013-11-05 01:34:00,
2013-11-04 20:39:00,22.6,17.4,30.67,East,82,0.0,0.0,80,0.00,,CLR,0.00,VWS V12.08,2013-11-05 01:39:00,
2013-11-04 20:44:00,22.5,17.6,30.67,East,82,0.0,0.0,81,0.00,,CLR,0.00,VWS V12.08,2013-11-05 01:44:00,
2013-11-04 20:49:00,22.5,17.6,30.67,East,82,0.0,0.0,81,0.00,,CLR,0.00,VWS V12.08,2013-11-05 01:49:00,
2013-11-04 20:54:00,22.3,17.6,30.67,East,82,0.0,0.0,82,0.00,,CLR,0.00,VWS V12.08,2013-11-05 01:54:00,
2013-11-04 20:59:00,22.3,17.9,30.68,East,82,0.0,0.0,83,0.00,,CLR,0.00,VWS V12.08,2013-11-05 01:59:00,
2013-11-04 21:04:00,22.2,17.8,30.68,East,82,0.0,0.0,83,0.00,,CLR,0.00,VWS V12.08,2013-11-05 02:04:00,
2013-11-04 21:09:00,22.0,17.9,30.68,East,82,0.0,0.0,84,0.00,,CLR,0.00,VWS V12.08,2013-11-05 02:09:00,
2013-11-04 21:14:00,21.9,18.1,30.67,East,82,0.0,0.0,85,0.00,,CLR,0.00,VWS V12.08,2013-11-05 02:14:00,
2013-11-04 21:19:00,21.7,18.2,30.67,East,85,0.0,0.0,86,0.00,,CLR,0.00,VWS V12.08,2013-11-05 02:19:00,
2013-11-04 21:24:00,21.7,18.2,30.67,East,85,0.0,0.0,86,0.00,,CLR,0.00,VWS V12.08,2013-11-05 02:24:00,
2013-11-04 21:29:00,21.7,18.4,30.67,East,85,0.0,0.0,87,0.00,,CLR,0.00,VWS V12.08,2013-11-05 02:29:00,
2013-11-04 21:34:00,21.7,18.4,30.67,East,85,0.0,0.0,87,0.00,,CLR,0.00,VWS V12.08,2013-11-05 02:34:00,
2013-11-04 21:39:00,21.6,18.3,30.67,East,85,0.0,0.0,87,0.00,,CLR,0.00,VWS V12.08,2013-11-05 02:39:00,
2013-11-04 21:44:00,21.6,18.3,30.67,East,85,0.0,0.0,87,0.00,,CLR,0.00,VWS V12.08,2013-11-05 02:44:00,
2013-11-04 21:49:00,21.6,18.3,30.67,East,85,0.0,0.0,87,0.00,,CLR,0.00,VWS V12.08,2013-11-05 02:49:00,
2013-11-04 21:54:00,21.4,18.1,30.67,East,85,0.0,0.0,87,0.00,,CLR,0.00,VWS V12.08,2013-11-05 02:54:00,
2013-11-04 21:59:00,21.4,18.1,30.67,East,85,0.0,0.0,87,0.00,,CLR,0.00,VWS V12.08,2013-11-05 02:59:00,
2013-11-04 22:04:00,21.4,18.1,30.67,East,85,0.0,0.0,87,0.00,,CLR,0.00,VWS V12.08,2013-11-05 03:04:00,
2013-11-04 22:09:00,21.4,18.4,30.67,East,85,0.0,0.0,88,0.00,,CLR,0.00,VWS V12.08,2013-11-05 03:09:00,
2013-11-04 22:14:00,21.4,18.1,30.67,East,85,0.0,0.0,87,0.00,,CLR,0.00,VWS V12.08,2013-11-05 03:14:00,
2013-11-04 22:19:00,21.3,18.0,30.67,East,85,0.0,0.0,87,0.00,,CLR,0.00,VWS V12.08,2013-11-05 03:19:00,
2013-11-04 22:24:00,21.1,18.1,30.67,East,85,0.0,0.0,88,0.00,,CLR,0.00,VWS V12.08,2013-11-05 03:24:00,
2013-11-04 22:29:00,21.1,17.8,30.68,East,85,0.0,0.0,87,0.00,,CLR,0.00,VWS V12.08,2013-11-05 03:29:00,
2013-11-04 22:34:00,21.0,18.0,30.68,East,85,0.0,0.0,88,0.00,,CLR,0.00,VWS V12.08,2013-11-05 03:34:00,
2013-11-04 22:39:00,21.0,18.0,30.68,East,85,0.0,0.0,88,0.00,,CLR,0.00,VWS V12.08,2013-11-05 03:39:00,
2013-11-04 22:44:00,21.0,18.0,30.68,East,85,0.0,0.0,88,0.00,,CLR,0.00,VWS V12.08,2013-11-05 03:44:00,
2013-11-04 22:49:00,20.8,17.8,30.68,East,85,0.0,0.0,88,0.00,,CLR,0.00,VWS V12.08,2013-11-05 03:49:00,
2013-11-04 22:54:00,20.7,18.0,30.68,East,85,0.0,0.0,89,0.00,,CLR,0.00,VWS V12.08,2013-11-05 03:54:00,
2013-11-04 22:59:00,20.5,17.8,30.68,East,85,0.0,0.0,89,0.00,,CLR,0.00,VWS V12.08,2013-11-05 03:59:00,
2013-11-04 23:04:00,20.5,18.0,30.68,East,85,0.0,0.0,90,0.00,,CLR,0.00,VWS V12.08,2013-11-05 04:04:00,
2013-11-04 23:09:00,20.5,18.0,30.68,East,85,0.0,0.0,90,0.00,,CLR,0.00,VWS V12.08,2013-11-05 04:09:00,
2013-11-04 23:14:00,20.5,18.0,30.68,East,85,0.0,0.0,90,0.00,,CLR,0.00,VWS V12.08,2013-11-05 04:14:00,
2013-11-04 23:19:00,20.4,17.7,30.68,East,85,0.0,0.0,89,0.00,,CLR,0.00,VWS V12.08,2013-11-05 04:19:00,
2013-11-04 23:24:00,20.2,17.5,30.68,East,85,0.0,0.0,89,0.00,,CLR,0.00,VWS V12.08,2013-11-05 04:24:00,
2013-11-04 23:29:00,20.0,17.5,30.69,East,85,0.0,0.0,90,0.00,,CLR,0.00,VWS V12.08,2013-11-05 04:29:00,
2013-11-04 23:34:00,20.0,17.3,30.69,East,85,0.0,0.0,89,0.00,,CLR,0.00,VWS V12.08,2013-11-05 04:34:00,
2013-11-04 23:39:00,19.9,17.2,30.69,East,85,0.0,0.0,89,0.00,,CLR,0.00,VWS V12.08,2013-11-05 04:39:00,
2013-11-04 23:44:00,19.9,17.5,30.69,East,85,0.0,0.0,90,0.00,,CLR,0.00,VWS V12.08,2013-11-05 04:44:00,
2013-11-04 23:49:00,19.7,17.2,30.69,East,85,0.0,0.0,90,0.00,,CLR,0.00,VWS V12.08,2013-11-05 04:49:00,
2013-11-04 23:54:00,19.6,17.1,30.69,East,85,0.0,0.0,90,0.00,,CLR,0.00,VWS V12.08,2013-11-05 04:54:00,
2013-11-04 23:59:00,19.6,17.1,30.70,East,85,0.0,0.0,90,0.00,,CLR,0.00,VWS V12.08,2013-11-05 04:59:00,